createdAt,value
2023-04-24T00:02:07.848Z,13.96
2023-04-24T00:07:09.786Z,13.98
2023-04-24T00:12:11.112Z,14.07
2023-04-24T00:17:12.459Z,14.11
2023-04-24T00:22:15.506Z,14.17
2023-04-24T00:27:16.851Z,14.25
2023-04-24T00:32:18.972Z,14.27
2023-04-24T00:37:20.650Z,14.41
2023-04-24T00:42:22.005Z,14.25
2023-04-24T00:47:23.467Z,14.24
2023-04-24T00:52:25.248Z,14.25
2023-04-24T00:57:27.364Z,14.22
2023-04-24T01:02:28.843Z,14.25
2023-04-24T01:07:30.501Z,14.26
2023-04-24T01:12:31.872Z,14.20
2023-04-24T01:17:33.756Z,14.21
2023-04-24T01:22:35.709Z,14.25
2023-04-24T01:27:37.109Z,14.20
2023-04-24T01:32:39.581Z,14.20
2023-04-24T01:37:41.157Z,14.17
2023-04-24T01:42:43.482Z,14.11
2023-04-24T01:47:45.052Z,14.14
2023-04-24T01:52:46.489Z,14.12
2023-04-24T01:57:48.022Z,14.10
2023-04-24T02:02:50.239Z,14.14
2023-04-24T02:07:51.688Z,14.05
2023-04-24T02:12:53.091Z,14.02
2023-04-24T02:17:54.462Z,14.01
2023-04-24T02:22:56.075Z,14.04
2023-04-24T02:27:57.463Z,13.93
2023-04-24T02:32:58.833Z,13.95
2023-04-24T02:38:00.307Z,13.96
2023-04-24T02:43:01.771Z,13.90
2023-04-24T02:48:03.238Z,13.84
2023-04-24T02:53:04.804Z,13.81
2023-04-24T02:58:06.855Z,13.81
2023-04-24T03:03:08.344Z,13.93
2023-04-24T03:08:09.827Z,13.82
2023-04-24T03:13:11.177Z,13.74
2023-04-24T03:18:12.617Z,13.63
2023-04-24T03:23:14.073Z,13.61
2023-04-24T03:28:15.493Z,13.55
2023-04-24T03:33:16.866Z,13.55
2023-04-24T03:38:18.201Z,13.56
2023-04-24T03:43:19.557Z,13.55
2023-04-24T03:48:20.871Z,13.56
2023-04-24T03:53:22.715Z,13.55
2023-04-24T03:58:24.103Z,13.60
2023-04-24T04:03:26.418Z,13.55
2023-04-24T04:08:28.020Z,13.46
2023-04-24T04:13:29.345Z,13.42
2023-04-24T04:18:30.834Z,13.56
2023-04-24T04:23:32.991Z,13.43
2023-04-24T04:28:35.792Z,13.40
2023-04-24T04:33:39.076Z,13.34
2023-04-24T04:38:42.862Z,13.22
2023-04-24T04:43:44.465Z,13.18
2023-04-24T04:48:46.695Z,13.08
2023-04-24T04:53:48.003Z,13.05
2023-04-24T04:58:49.355Z,12.98
2023-04-24T05:03:50.843Z,13.02
2023-04-24T05:08:52.284Z,12.97
2023-04-24T05:13:53.635Z,12.89
2023-04-24T05:18:54.999Z,12.81
2023-04-24T05:23:56.333Z,12.86
2023-04-24T05:28:57.674Z,12.70
2023-04-24T05:33:59.065Z,12.66
2023-04-24T05:39:00.588Z,12.69
2023-04-24T05:44:02.007Z,12.69
2023-04-24T05:49:03.664Z,12.58
2023-04-24T05:54:05.065Z,12.55
2023-04-24T05:59:06.480Z,12.56
2023-04-24T06:04:08.238Z,12.77
2023-04-24T06:09:09.651Z,12.75
2023-04-24T06:14:11.088Z,12.62
2023-04-24T06:19:12.513Z,12.53
2023-04-24T06:24:15.413Z,12.62
2023-04-24T06:29:16.757Z,12.64
2023-04-24T06:34:18.109Z,12.64
2023-04-24T06:39:19.484Z,12.64
2023-04-24T06:44:21.003Z,12.65
2023-04-24T06:49:22.333Z,12.67
2023-04-24T06:54:23.732Z,12.77
2023-04-24T06:59:25.897Z,12.87
2023-04-24T07:04:27.535Z,12.91
2023-04-24T07:09:29.365Z,13.04
2023-04-24T07:14:30.818Z,13.15
2023-04-24T07:19:32.485Z,13.28
2023-04-24T07:24:33.966Z,13.24
2023-04-24T07:29:35.376Z,13.31
2023-04-24T07:34:36.769Z,13.22
2023-04-24T07:39:38.105Z,13.56
2023-04-24T07:44:39.430Z,13.62
2023-04-24T07:49:42.349Z,13.53
2023-04-24T07:54:44.212Z,13.53
2023-04-24T07:59:45.899Z,13.86
2023-04-24T08:04:47.521Z,13.89
2023-04-24T08:09:49.026Z,14.06
2023-04-24T08:14:50.528Z,14.23
2023-04-24T08:19:53.298Z,14.54
2023-04-24T08:24:55.467Z,14.56
2023-04-24T08:29:58.280Z,14.71
2023-04-24T08:35:00.320Z,14.62
2023-04-24T08:40:06.586Z,14.88
2023-04-24T08:45:08.557Z,15.00
2023-04-24T08:50:12.930Z,14.77
2023-04-24T08:55:15.791Z,14.47
2023-04-24T09:00:17.949Z,14.35
2023-04-24T09:05:21.372Z,14.35
2023-04-24T09:10:24.263Z,14.39
2023-04-24T09:15:25.805Z,14.55
2023-04-24T09:20:27.154Z,14.45
2023-04-24T09:25:37.085Z,14.37
2023-04-24T09:30:38.512Z,14.45
2023-04-24T09:35:44.408Z,14.52
2023-04-24T09:40:45.795Z,14.53
2023-04-24T09:45:47.226Z,14.51
2023-04-24T09:50:52.885Z,14.43
2023-04-24T09:55:54.432Z,14.29
2023-04-24T10:00:57.726Z,14.29
2023-04-24T10:06:00.736Z,14.14
2023-04-24T10:11:03.022Z,14.06
2023-04-24T10:16:05.232Z,14.10
2023-04-24T10:21:07.404Z,14.08
2023-04-24T10:26:10.678Z,13.62
2023-04-24T10:31:13.605Z,13.17
2023-04-24T10:36:16.522Z,12.70
2023-04-24T10:41:21.595Z,12.31
2023-04-24T10:46:23.199Z,12.02
2023-04-24T10:51:26.762Z,11.77
2023-04-24T10:56:28.262Z,11.79
2023-04-24T11:01:33.135Z,12.02
2023-04-24T11:06:37.031Z,12.09
2023-04-24T11:11:45.149Z,12.54
2023-04-24T11:16:53.706Z,12.87
2023-04-24T11:22:03.885Z,13.16
2023-04-24T11:27:05.244Z,13.65
2023-04-24T11:32:41.161Z,13.97
2023-04-24T11:37:45.276Z,14.26
2023-04-24T11:42:50.971Z,14.66
2023-04-24T11:47:52.673Z,14.73
2023-04-24T11:52:54.591Z,14.77
2023-04-24T11:58:00.536Z,15.28
2023-04-24T12:03:10.094Z,15.38
2023-04-24T12:08:11.722Z,15.33
2023-04-24T12:13:14.251Z,15.39
2023-04-24T12:18:18.004Z,15.26
2023-04-24T12:23:36.509Z,15.24
2023-04-24T12:28:39.693Z,15.28
2023-04-24T12:33:41.108Z,15.21
2023-04-24T12:38:45.433Z,15.71
2023-04-24T12:43:54.482Z,16.02
2023-04-24T12:48:55.916Z,16.33
2023-04-24T12:53:57.542Z,16.37
2023-04-24T12:58:59.021Z,16.57
2023-04-24T13:04:00.626Z,16.63
2023-04-24T13:09:02.110Z,16.22
2023-04-24T13:14:03.517Z,15.89
2023-04-24T13:19:05.033Z,15.76
2023-04-24T13:24:08.662Z,15.54
2023-04-24T13:29:10.289Z,16.56
2023-04-24T13:34:11.759Z,15.78
2023-04-24T13:39:13.855Z,15.46
2023-04-24T13:44:16.670Z,14.63
2023-04-24T13:49:18.086Z,14.52
2023-04-24T13:54:19.416Z,14.73
2023-04-24T13:59:22.546Z,15.30
2023-04-24T14:04:24.221Z,15.15
2023-04-24T14:09:25.748Z,15.26
2023-04-24T14:14:27.567Z,16.09
2023-04-24T14:19:28.892Z,17.05
2023-04-24T14:24:30.250Z,17.58
2023-04-24T14:29:32.342Z,18.77
2023-04-24T14:34:35.160Z,18.44
2023-04-24T14:39:36.540Z,17.85
2023-04-24T14:44:37.953Z,17.43
2023-04-24T14:49:39.326Z,17.03
2023-04-24T14:54:40.959Z,16.37
2023-04-24T14:59:42.382Z,16.04
2023-04-24T15:04:44.108Z,16.13
2023-04-24T15:09:48.030Z,16.18
2023-04-24T15:14:49.472Z,16.00
2023-04-24T15:19:50.849Z,16.00
2023-04-24T15:24:52.170Z,15.96
2023-04-24T15:29:54.554Z,16.15
2023-04-24T15:35:07.088Z,16.37
2023-04-24T15:40:12.121Z,16.53
2023-04-24T15:45:14.911Z,16.33
2023-04-24T15:50:20.429Z,16.22
2023-04-24T15:55:21.871Z,15.99
2023-04-24T16:00:23.362Z,15.71
2023-04-24T16:05:24.696Z,15.79
2023-04-24T16:10:26.733Z,16.39
2023-04-24T16:15:28.226Z,16.68
2023-04-24T16:20:29.575Z,16.54
2023-04-24T16:25:31.042Z,16.57
2023-04-24T16:30:32.475Z,16.64
2023-04-24T16:35:33.826Z,16.54
2023-04-24T16:40:35.297Z,16.35
2023-04-24T16:45:36.629Z,16.56
2023-04-24T16:50:38.123Z,16.45
2023-04-24T16:55:39.490Z,16.20
2023-04-24T17:00:41.036Z,15.96
2023-04-24T17:05:42.473Z,15.72
2023-04-24T17:10:43.855Z,15.48
2023-04-24T17:15:45.293Z,15.51
2023-04-24T17:20:46.606Z,15.97
2023-04-24T17:25:48.850Z,16.03
2023-04-24T17:30:50.264Z,16.11
2023-04-24T17:35:51.730Z,16.03
2023-04-24T17:40:53.277Z,15.93
2023-04-24T17:45:59.849Z,15.79
2023-04-24T17:51:01.235Z,15.92
2023-04-24T17:56:03.796Z,15.93
2023-04-24T18:01:05.508Z,15.77
2023-04-24T18:06:07.041Z,15.79
2023-04-24T18:11:08.394Z,15.67
2023-04-24T18:16:09.825Z,15.21
2023-04-24T18:21:11.334Z,15.16
2023-04-24T18:26:17.021Z,15.18
2023-04-24T18:31:18.494Z,15.10
2023-04-24T18:36:20.223Z,14.74
2023-04-24T18:41:21.567Z,14.59
2023-04-24T18:46:22.919Z,14.44
2023-04-24T18:51:24.348Z,14.33
2023-04-24T18:56:25.727Z,14.36
2023-04-24T19:01:27.210Z,14.23
2023-04-24T19:06:28.680Z,14.10
2023-04-24T19:11:30.211Z,13.84
2023-04-24T19:16:31.627Z,13.60
2023-04-24T19:21:34.074Z,13.46
2023-04-24T19:26:35.480Z,12.89
2023-04-24T19:31:36.847Z,12.53
2023-04-24T19:36:38.293Z,12.09
2023-04-24T19:41:39.701Z,11.49
2023-04-24T19:46:41.156Z,11.17
2023-04-24T19:51:42.579Z,11.08
2023-04-24T19:56:44.266Z,11.15
2023-04-24T20:01:45.901Z,11.21
2023-04-24T20:06:47.433Z,11.28
2023-04-24T20:11:51.227Z,11.50
2023-04-24T20:16:54.227Z,11.71
2023-04-24T20:21:55.661Z,11.83
2023-04-24T20:26:57.037Z,11.88
2023-04-24T20:31:58.484Z,11.77
2023-04-24T20:36:59.871Z,11.78
2023-04-24T20:42:01.241Z,11.89
2023-04-24T20:47:02.760Z,11.93
2023-04-24T20:52:04.277Z,11.96
2023-04-24T20:57:05.679Z,11.92
2023-04-24T21:02:07.406Z,11.82
2023-04-24T21:07:10.193Z,11.70
2023-04-24T21:12:11.651Z,11.79
2023-04-24T21:17:13.003Z,11.78
2023-04-24T21:22:14.398Z,11.76
2023-04-24T21:27:15.803Z,11.77
2023-04-24T21:32:17.243Z,11.77
2023-04-24T21:37:18.611Z,11.69
2023-04-24T21:42:19.985Z,11.68
2023-04-24T21:47:21.353Z,11.64
2023-04-24T21:52:22.859Z,11.68
2023-04-24T21:57:24.245Z,11.69
2023-04-24T22:02:25.681Z,11.61
2023-04-24T22:07:27.131Z,11.57
2023-04-24T22:12:28.503Z,11.60
2023-04-24T22:17:30.328Z,11.57
2023-04-24T22:22:31.739Z,11.31
2023-04-24T22:27:35.544Z,11.10
2023-04-24T22:32:37.342Z,10.84
2023-04-24T22:37:39.232Z,10.67
2023-04-24T22:42:40.587Z,10.67
2023-04-24T22:47:42.089Z,10.52
2023-04-24T22:52:44.011Z,10.52
2023-04-24T22:57:45.611Z,10.58
2023-04-24T23:02:47.098Z,10.52
2023-04-24T23:07:48.510Z,10.55
2023-04-24T23:12:50.202Z,10.51
2023-04-24T23:17:51.580Z,10.55
2023-04-24T23:22:53.496Z,10.62
2023-04-24T23:27:55.005Z,10.55
2023-04-24T23:32:56.489Z,10.60
2023-04-24T23:37:58.022Z,10.52
2023-04-24T23:43:06.865Z,10.56
2023-04-24T23:48:09.164Z,10.44
2023-04-24T23:53:10.773Z,10.46
2023-04-24T23:58:12.101Z,10.46
